sensor_id;sensor_type;location;lat;lon;timestamp;P1;durP1;ratioP1;P2;durP2;ratioP2
53961;SDS011;39868;53.398;6.564;2024-03-02T00:00:40;12.27;;;11.60;;
53961;SDS011;39868;53.398;6.564;2024-03-02T00:03:07;12.73;;;11.93;;
53961;SDS011;39868;53.398;6.564;2024-03-02T00:05:36;12.48;;;11.73;;
53961;SDS011;39868;53.398;6.564;2024-03-02T00:08:04;12.85;;;11.73;;
53961;SDS011;39868;53.398;6.564;2024-03-02T00:10:37;12.05;;;11.35;;
53961;SDS011;39868;53.398;6.564;2024-03-02T00:13:08;12.00;;;11.30;;
53961;SDS011;39868;53.398;6.564;2024-03-02T00:18:10;11.75;;;11.05;;
53961;SDS011;39868;53.398;6.564;2024-03-02T00:20:40;11.68;;;11.07;;
53961;SDS011;39868;53.398;6.564;2024-03-02T00:23:08;11.73;;;11.10;;
53961;SDS011;39868;53.398;6.564;2024-03-02T00:25:38;12.27;;;11.48;;
53961;SDS011;39868;53.398;6.564;2024-03-02T00:28:11;12.40;;;11.60;;
53961;SDS011;39868;53.398;6.564;2024-03-02T00:33:27;12.02;;;11.40;;
53961;SDS011;39868;53.398;6.564;2024-03-02T00:36:04;12.13;;;11.43;;
53961;SDS011;39868;53.398;6.564;2024-03-02T00:38:33;12.55;;;11.68;;
53961;SDS011;39868;53.398;6.564;2024-03-02T00:41:05;12.60;;;11.50;;
53961;SDS011;39868;53.398;6.564;2024-03-02T00:46:16;12.40;;;11.65;;
53961;SDS011;39868;53.398;6.564;2024-03-02T00:48:50;12.43;;;11.73;;
53961;SDS011;39868;53.398;6.564;2024-03-02T00:51:21;12.07;;;11.45;;
53961;SDS011;39868;53.398;6.564;2024-03-02T00:53:50;12.00;;;11.30;;
53961;SDS011;39868;53.398;6.564;2024-03-02T00:56:20;11.85;;;11.07;;
53961;SDS011;39868;53.398;6.564;2024-03-02T00:58:50;12.05;;;11.35;;
53961;SDS011;39868;53.398;6.564;2024-03-02T01:01:17;12.30;;;11.55;;
53961;SDS011;39868;53.398;6.564;2024-03-02T01:03:46;12.38;;;11.63;;
53961;SDS011;39868;53.398;6.564;2024-03-02T01:06:14;12.40;;;11.57;;
53961;SDS011;39868;53.398;6.564;2024-03-02T01:08:42;12.32;;;11.52;;
53961;SDS011;39868;53.398;6.564;2024-03-02T01:11:10;11.80;;;11.02;;
53961;SDS011;39868;53.398;6.564;2024-03-02T01:13:37;12.05;;;11.32;;
53961;SDS011;39868;53.398;6.564;2024-03-02T01:16:05;12.10;;;11.32;;
53961;SDS011;39868;53.398;6.564;2024-03-02T01:18:32;12.45;;;11.73;;
53961;SDS011;39868;53.398;6.564;2024-03-02T01:21:00;12.48;;;11.68;;
53961;SDS011;39868;53.398;6.564;2024-03-02T01:23:28;12.82;;;11.93;;
53961;SDS011;39868;53.398;6.564;2024-03-02T01:25:55;12.82;;;11.95;;
53961;SDS011;39868;53.398;6.564;2024-03-02T01:28:22;12.13;;;11.30;;
53961;SDS011;39868;53.398;6.564;2024-03-02T01:30:49;12.27;;;11.48;;
53961;SDS011;39868;53.398;6.564;2024-03-02T01:33:17;12.43;;;11.70;;
53961;SDS011;39868;53.398;6.564;2024-03-02T01:35:46;12.98;;;12.18;;
53961;SDS011;39868;53.398;6.564;2024-03-02T01:38:13;12.18;;;11.48;;
53961;SDS011;39868;53.398;6.564;2024-03-02T01:40:41;12.68;;;11.80;;
53961;SDS011;39868;53.398;6.564;2024-03-02T01:43:11;12.57;;;11.77;;
53961;SDS011;39868;53.398;6.564;2024-03-02T01:45:39;13.45;;;12.45;;
53961;SDS011;39868;53.398;6.564;2024-03-02T01:48:07;13.27;;;12.40;;
53961;SDS011;39868;53.398;6.564;2024-03-02T01:50:34;12.70;;;11.90;;
53961;SDS011;39868;53.398;6.564;2024-03-02T01:53:02;12.52;;;11.73;;
53961;SDS011;39868;53.398;6.564;2024-03-02T01:55:32;12.63;;;11.90;;
53961;SDS011;39868;53.398;6.564;2024-03-02T01:58:01;13.32;;;12.35;;
53961;SDS011;39868;53.398;6.564;2024-03-02T02:00:28;12.95;;;11.95;;
53961;SDS011;39868;53.398;6.564;2024-03-02T02:02:56;12.77;;;11.85;;
53961;SDS011;39868;53.398;6.564;2024-03-02T02:05:25;12.45;;;11.65;;
53961;SDS011;39868;53.398;6.564;2024-03-02T02:07:52;12.98;;;12.07;;
53961;SDS011;39868;53.398;6.564;2024-03-02T02:10:20;12.60;;;11.52;;
53961;SDS011;39868;53.398;6.564;2024-03-02T02:12:47;12.70;;;11.80;;
53961;SDS011;39868;53.398;6.564;2024-03-02T02:17:54;12.73;;;11.82;;
53961;SDS011;39868;53.398;6.564;2024-03-02T02:20:22;13.00;;;12.00;;
53961;SDS011;39868;53.398;6.564;2024-03-02T02:23:03;13.07;;;12.18;;
53961;SDS011;39868;53.398;6.564;2024-03-02T02:25:36;12.50;;;11.70;;
53961;SDS011;39868;53.398;6.564;2024-03-02T02:28:03;12.10;;;11.35;;
53961;SDS011;39868;53.398;6.564;2024-03-02T02:30:31;12.95;;;12.05;;
53961;SDS011;39868;53.398;6.564;2024-03-02T02:32:59;12.13;;;11.38;;
53961;SDS011;39868;53.398;6.564;2024-03-02T02:35:27;12.52;;;11.55;;
53961;SDS011;39868;53.398;6.564;2024-03-02T02:37:55;13.30;;;12.35;;
53961;SDS011;39868;53.398;6.564;2024-03-02T02:40:23;13.48;;;12.57;;
53961;SDS011;39868;53.398;6.564;2024-03-02T02:42:50;13.25;;;12.35;;
53961;SDS011;39868;53.398;6.564;2024-03-02T02:45:20;13.65;;;12.63;;
53961;SDS011;39868;53.398;6.564;2024-03-02T02:47:50;13.52;;;12.43;;
53961;SDS011;39868;53.398;6.564;2024-03-02T02:50:17;12.93;;;12.10;;
53961;SDS011;39868;53.398;6.564;2024-03-02T02:52:45;12.38;;;11.63;;
53961;SDS011;39868;53.398;6.564;2024-03-02T02:55:13;12.85;;;12.05;;
53961;SDS011;39868;53.398;6.564;2024-03-02T02:57:42;12.02;;;11.38;;
53961;SDS011;39868;53.398;6.564;2024-03-02T03:00:11;12.20;;;11.48;;
53961;SDS011;39868;53.398;6.564;2024-03-02T03:02:45;12.25;;;11.38;;
53961;SDS011;39868;53.398;6.564;2024-03-02T03:05:15;12.35;;;11.68;;
53961;SDS011;39868;53.398;6.564;2024-03-02T03:07:42;12.35;;;11.65;;
53961;SDS011;39868;53.398;6.564;2024-03-02T03:10:11;12.63;;;11.88;;
53961;SDS011;39868;53.398;6.564;2024-03-02T03:12:40;13.00;;;12.18;;
53961;SDS011;39868;53.398;6.564;2024-03-02T03:15:09;12.82;;;12.02;;
53961;SDS011;39868;53.398;6.564;2024-03-02T03:17:38;12.70;;;11.90;;
53961;SDS011;39868;53.398;6.564;2024-03-02T03:20:05;12.00;;;11.27;;
53961;SDS011;39868;53.398;6.564;2024-03-02T03:22:37;12.48;;;11.75;;
53961;SDS011;39868;53.398;6.564;2024-03-02T03:25:05;12.55;;;11.65;;
53961;SDS011;39868;53.398;6.564;2024-03-02T03:27:35;12.30;;;11.60;;
53961;SDS011;39868;53.398;6.564;2024-03-02T03:30:03;12.18;;;11.35;;
53961;SDS011;39868;53.398;6.564;2024-03-02T03:32:33;12.00;;;11.30;;
53961;SDS011;39868;53.398;6.564;2024-03-02T03:35:01;11.77;;;11.07;;
53961;SDS011;39868;53.398;6.564;2024-03-02T03:37:29;11.95;;;11.25;;
53961;SDS011;39868;53.398;6.564;2024-03-02T03:40:04;11.17;;;10.57;;
53961;SDS011;39868;53.398;6.564;2024-03-02T03:42:37;11.68;;;10.98;;
53961;SDS011;39868;53.398;6.564;2024-03-02T03:45:06;11.50;;;10.90;;
53961;SDS011;39868;53.398;6.564;2024-03-02T03:47:34;11.82;;;11.13;;
53961;SDS011;39868;53.398;6.564;2024-03-02T03:50:01;12.02;;;11.30;;
53961;SDS011;39868;53.398;6.564;2024-03-02T03:52:32;11.75;;;11.05;;
53961;SDS011;39868;53.398;6.564;2024-03-02T03:55:00;11.30;;;10.70;;
53961;SDS011;39868;53.398;6.564;2024-03-02T03:57:27;11.38;;;10.73;;
53961;SDS011;39868;53.398;6.564;2024-03-02T03:59:54;11.60;;;10.90;;
53961;SDS011;39868;53.398;6.564;2024-03-02T04:02:21;12.02;;;11.20;;
53961;SDS011;39868;53.398;6.564;2024-03-02T04:04:49;11.75;;;11.05;;
53961;SDS011;39868;53.398;6.564;2024-03-02T04:07:16;11.65;;;11.05;;
53961;SDS011;39868;53.398;6.564;2024-03-02T04:09:43;11.02;;;10.52;;
53961;SDS011;39868;53.398;6.564;2024-03-02T04:12:11;11.25;;;10.65;;
53961;SDS011;39868;53.398;6.564;2024-03-02T04:14:39;11.40;;;10.80;;
53961;SDS011;39868;53.398;6.564;2024-03-02T04:17:09;11.68;;;11.00;;
53961;SDS011;39868;53.398;6.564;2024-03-02T04:19:36;11.60;;;10.90;;
53961;SDS011;39868;53.398;6.564;2024-03-02T04:22:04;11.23;;;10.63;;
53961;SDS011;39868;53.398;6.564;2024-03-02T04:24:43;10.88;;;10.38;;
53961;SDS011;39868;53.398;6.564;2024-03-02T04:27:11;11.05;;;10.48;;
53961;SDS011;39868;53.398;6.564;2024-03-02T04:29:38;11.10;;;10.45;;
53961;SDS011;39868;53.398;6.564;2024-03-02T04:32:05;11.02;;;10.32;;
53961;SDS011;39868;53.398;6.564;2024-03-02T04:34:33;11.20;;;10.50;;
53961;SDS011;39868;53.398;6.564;2024-03-02T04:37:00;10.75;;;10.23;;
53961;SDS011;39868;53.398;6.564;2024-03-02T04:39:28;10.80;;;10.30;;
53961;SDS011;39868;53.398;6.564;2024-03-02T04:41:55;11.30;;;10.70;;
53961;SDS011;39868;53.398;6.564;2024-03-02T04:44:22;10.52;;;10.00;;
53961;SDS011;39868;53.398;6.564;2024-03-02T04:46:50;11.13;;;10.63;;
53961;SDS011;39868;53.398;6.564;2024-03-02T04:49:17;11.30;;;10.70;;
53961;SDS011;39868;53.398;6.564;2024-03-02T04:51:45;11.23;;;10.73;;
53961;SDS011;39868;53.398;6.564;2024-03-02T04:54:12;11.57;;;10.98;;
53961;SDS011;39868;53.398;6.564;2024-03-02T04:56:41;11.25;;;10.75;;
53961;SDS011;39868;53.398;6.564;2024-03-02T04:59:19;12.02;;;11.32;;
53961;SDS011;39868;53.398;6.564;2024-03-02T05:01:46;11.30;;;10.80;;
53961;SDS011;39868;53.398;6.564;2024-03-02T05:04:14;11.48;;;10.88;;
53961;SDS011;39868;53.398;6.564;2024-03-02T05:06:41;12.00;;;11.40;;
53961;SDS011;39868;53.398;6.564;2024-03-02T05:09:09;11.45;;;10.85;;
53961;SDS011;39868;53.398;6.564;2024-03-02T05:11:36;11.32;;;10.82;;
53961;SDS011;39868;53.398;6.564;2024-03-02T05:14:03;11.73;;;11.02;;
53961;SDS011;39868;53.398;6.564;2024-03-02T05:16:39;11.57;;;10.98;;
53961;SDS011;39868;53.398;6.564;2024-03-02T05:19:08;11.15;;;10.65;;
53961;SDS011;39868;53.398;6.564;2024-03-02T05:21:35;11.77;;;11.10;;
53961;SDS011;39868;53.398;6.564;2024-03-02T05:24:02;12.18;;;11.38;;
53961;SDS011;39868;53.398;6.564;2024-03-02T05:26:29;11.93;;;11.32;;
53961;SDS011;39868;53.398;6.564;2024-03-02T05:28:57;11.32;;;10.73;;
53961;SDS011;39868;53.398;6.564;2024-03-02T05:31:24;11.60;;;11.00;;
53961;SDS011;39868;53.398;6.564;2024-03-02T05:33:51;11.75;;;11.15;;
53961;SDS011;39868;53.398;6.564;2024-03-02T05:36:23;11.40;;;10.90;;
53961;SDS011;39868;53.398;6.564;2024-03-02T05:38:51;11.52;;;10.93;;
53961;SDS011;39868;53.398;6.564;2024-03-02T05:41:18;11.50;;;10.80;;
53961;SDS011;39868;53.398;6.564;2024-03-02T05:43:45;11.60;;;10.80;;
53961;SDS011;39868;53.398;6.564;2024-03-02T05:46:13;10.98;;;10.48;;
53961;SDS011;39868;53.398;6.564;2024-03-02T05:48:41;11.73;;;11.02;;
53961;SDS011;39868;53.398;6.564;2024-03-02T05:51:08;11.88;;;11.18;;
53961;SDS011;39868;53.398;6.564;2024-03-02T05:53:35;11.18;;;10.68;;
53961;SDS011;39868;53.398;6.564;2024-03-02T05:56:05;11.23;;;10.57;;
53961;SDS011;39868;53.398;6.564;2024-03-02T05:58:32;11.90;;;11.30;;
53961;SDS011;39868;53.398;6.564;2024-03-02T06:01:18;11.82;;;11.23;;
53961;SDS011;39868;53.398;6.564;2024-03-02T06:03:46;11.20;;;10.70;;
53961;SDS011;39868;53.398;6.564;2024-03-02T06:06:13;11.68;;;11.07;;
53961;SDS011;39868;53.398;6.564;2024-03-02T06:08:40;11.63;;;11.07;;
53961;SDS011;39868;53.398;6.564;2024-03-02T06:11:08;11.73;;;11.13;;
53961;SDS011;39868;53.398;6.564;2024-03-02T06:13:35;12.13;;;11.52;;
53961;SDS011;39868;53.398;6.564;2024-03-02T06:16:02;11.85;;;11.25;;
53961;SDS011;39868;53.398;6.564;2024-03-02T06:18:30;12.25;;;11.55;;
53961;SDS011;39868;53.398;6.564;2024-03-02T06:20:57;11.77;;;11.23;;
53961;SDS011;39868;53.398;6.564;2024-03-02T06:23:24;11.85;;;11.25;;
53961;SDS011;39868;53.398;6.564;2024-03-02T06:25:51;12.63;;;11.93;;
53961;SDS011;39868;53.398;6.564;2024-03-02T06:28:18;12.60;;;11.90;;
53961;SDS011;39868;53.398;6.564;2024-03-02T06:30:46;11.80;;;11.20;;
53961;SDS011;39868;53.398;6.564;2024-03-02T06:33:13;11.45;;;10.80;;
53961;SDS011;39868;53.398;6.564;2024-03-02T06:35:40;11.80;;;11.20;;
53961;SDS011;39868;53.398;6.564;2024-03-02T06:38:07;11.93;;;11.40;;
53961;SDS011;39868;53.398;6.564;2024-03-02T06:40:35;12.00;;;11.40;;
53961;SDS011;39868;53.398;6.564;2024-03-02T06:43:06;11.40;;;10.80;;
53961;SDS011;39868;53.398;6.564;2024-03-02T06:45:33;11.35;;;10.75;;
53961;SDS011;39868;53.398;6.564;2024-03-02T06:48:01;10.98;;;10.48;;
53961;SDS011;39868;53.398;6.564;2024-03-02T06:50:28;11.50;;;10.90;;
53961;SDS011;39868;53.398;6.564;2024-03-02T06:52:56;11.40;;;10.80;;
53961;SDS011;39868;53.398;6.564;2024-03-02T06:55:23;11.80;;;11.18;;
53961;SDS011;39868;53.398;6.564;2024-03-02T06:57:51;11.40;;;10.80;;
53961;SDS011;39868;53.398;6.564;2024-03-02T07:00:19;11.60;;;11.00;;
53961;SDS011;39868;53.398;6.564;2024-03-02T07:02:47;11.35;;;10.85;;
53961;SDS011;39868;53.398;6.564;2024-03-02T07:05:14;11.20;;;10.70;;
53961;SDS011;39868;53.398;6.564;2024-03-02T07:07:41;11.20;;;10.68;;
53961;SDS011;39868;53.398;6.564;2024-03-02T07:10:09;11.85;;;11.15;;
53961;SDS011;39868;53.398;6.564;2024-03-02T07:12:37;11.52;;;10.88;;
53961;SDS011;39868;53.398;6.564;2024-03-02T07:15:04;10.98;;;10.48;;
53961;SDS011;39868;53.398;6.564;2024-03-02T07:17:32;10.95;;;10.45;;
53961;SDS011;39868;53.398;6.564;2024-03-02T07:19:59;11.13;;;10.63;;
53961;SDS011;39868;53.398;6.564;2024-03-02T07:22:26;11.38;;;10.80;;
53961;SDS011;39868;53.398;6.564;2024-03-02T07:24:56;11.85;;;11.25;;
53961;SDS011;39868;53.398;6.564;2024-03-02T07:27:23;11.43;;;10.88;;
53961;SDS011;39868;53.398;6.564;2024-03-02T07:29:50;11.73;;;11.13;;
53961;SDS011;39868;53.398;6.564;2024-03-02T07:32:18;11.65;;;11.07;;
53961;SDS011;39868;53.398;6.564;2024-03-02T07:34:45;11.60;;;11.05;;
53961;SDS011;39868;53.398;6.564;2024-03-02T07:37:12;11.27;;;10.77;;
53961;SDS011;39868;53.398;6.564;2024-03-02T07:39:39;11.40;;;10.90;;
53961;SDS011;39868;53.398;6.564;2024-03-02T07:42:06;11.20;;;10.70;;
53961;SDS011;39868;53.398;6.564;2024-03-02T07:44:33;11.57;;;10.98;;
53961;SDS011;39868;53.398;6.564;2024-03-02T07:47:02;11.73;;;11.13;;
53961;SDS011;39868;53.398;6.564;2024-03-02T07:49:29;12.02;;;11.25;;
53961;SDS011;39868;53.398;6.564;2024-03-02T07:51:56;11.43;;;10.73;;
53961;SDS011;39868;53.398;6.564;2024-03-02T07:54:24;11.88;;;11.27;;
53961;SDS011;39868;53.398;6.564;2024-03-02T07:56:51;12.13;;;11.43;;
53961;SDS011;39868;53.398;6.564;2024-03-02T07:59:18;11.77;;;11.18;;
53961;SDS011;39868;53.398;6.564;2024-03-02T08:01:48;11.63;;;11.02;;
53961;SDS011;39868;53.398;6.564;2024-03-02T08:04:17;11.45;;;10.95;;
53961;SDS011;39868;53.398;6.564;2024-03-02T08:06:45;11.55;;;11.02;;
53961;SDS011;39868;53.398;6.564;2024-03-02T08:09:12;11.00;;;10.50;;
53961;SDS011;39868;53.398;6.564;2024-03-02T08:11:39;11.13;;;10.63;;
53961;SDS011;39868;53.398;6.564;2024-03-02T08:14:06;11.05;;;10.55;;
53961;SDS011;39868;53.398;6.564;2024-03-02T08:16:35;11.18;;;10.57;;
53961;SDS011;39868;53.398;6.564;2024-03-02T08:19:02;11.60;;;11.05;;
53961;SDS011;39868;53.398;6.564;2024-03-02T08:21:30;11.50;;;11.00;;
53961;SDS011;39868;53.398;6.564;2024-03-02T08:23:58;11.43;;;10.93;;
53961;SDS011;39868;53.398;6.564;2024-03-02T08:26:27;11.57;;;10.90;;
53961;SDS011;39868;53.398;6.564;2024-03-02T08:28:58;11.88;;;11.27;;
53961;SDS011;39868;53.398;6.564;2024-03-02T08:31:28;11.93;;;11.32;;
53961;SDS011;39868;53.398;6.564;2024-03-02T08:33:55;12.18;;;11.57;;
53961;SDS011;39868;53.398;6.564;2024-03-02T08:36:23;11.65;;;11.07;;
53961;SDS011;39868;53.398;6.564;2024-03-02T08:38:51;11.38;;;10.85;;
53961;SDS011;39868;53.398;6.564;2024-03-02T08:41:18;12.00;;;11.40;;
53961;SDS011;39868;53.398;6.564;2024-03-02T08:43:45;11.80;;;11.10;;
53961;SDS011;39868;53.398;6.564;2024-03-02T08:46:13;11.73;;;11.05;;
53961;SDS011;39868;53.398;6.564;2024-03-02T08:48:40;11.38;;;10.68;;
53961;SDS011;39868;53.398;6.564;2024-03-02T08:51:08;11.40;;;10.82;;
53961;SDS011;39868;53.398;6.564;2024-03-02T08:53:36;11.50;;;10.90;;
53961;SDS011;39868;53.398;6.564;2024-03-02T08:56:06;11.65;;;11.10;;
53961;SDS011;39868;53.398;6.564;2024-03-02T08:58:33;12.13;;;11.38;;
53961;SDS011;39868;53.398;6.564;2024-03-02T09:01:01;11.82;;;11.13;;
53961;SDS011;39868;53.398;6.564;2024-03-02T09:03:28;11.15;;;10.65;;
53961;SDS011;39868;53.398;6.564;2024-03-02T09:05:56;11.00;;;10.40;;
53961;SDS011;39868;53.398;6.564;2024-03-02T09:08:24;10.60;;;10.20;;
53961;SDS011;39868;53.398;6.564;2024-03-02T09:10:51;10.80;;;10.30;;
53961;SDS011;39868;53.398;6.564;2024-03-02T09:13:19;10.52;;;10.02;;
53961;SDS011;39868;53.398;6.564;2024-03-02T09:15:47;10.55;;;9.95;;
53961;SDS011;39868;53.398;6.564;2024-03-02T09:18:14;10.30;;;9.80;;
53961;SDS011;39868;53.398;6.564;2024-03-02T09:20:42;10.43;;;9.93;;
53961;SDS011;39868;53.398;6.564;2024-03-02T09:23:09;10.30;;;9.80;;
53961;SDS011;39868;53.398;6.564;2024-03-02T09:25:36;10.75;;;10.10;;
53961;SDS011;39868;53.398;6.564;2024-03-02T09:28:04;10.10;;;9.60;;
53961;SDS011;39868;53.398;6.564;2024-03-02T09:30:31;10.80;;;10.30;;
53961;SDS011;39868;53.398;6.564;2024-03-02T09:32:58;10.68;;;10.27;;
53961;SDS011;39868;53.398;6.564;2024-03-02T09:35:34;10.32;;;9.88;;
53961;SDS011;39868;53.398;6.564;2024-03-02T09:38:02;9.60;;;9.20;;
53961;SDS011;39868;53.398;6.564;2024-03-02T09:40:30;9.80;;;9.40;;
53961;SDS011;39868;53.398;6.564;2024-03-02T09:42:57;9.70;;;9.30;;
53961;SDS011;39868;53.398;6.564;2024-03-02T09:45:29;9.77;;;9.38;;
53961;SDS011;39868;53.398;6.564;2024-03-02T09:47:56;9.88;;;9.40;;
53961;SDS011;39868;53.398;6.564;2024-03-02T09:50:24;9.27;;;8.80;;
53961;SDS011;39868;53.398;6.564;2024-03-02T09:52:51;9.40;;;9.00;;
53961;SDS011;39868;53.398;6.564;2024-03-02T09:55:21;9.23;;;8.75;;
53961;SDS011;39868;53.398;6.564;2024-03-02T09:57:49;8.45;;;8.05;;
53961;SDS011;39868;53.398;6.564;2024-03-02T10:00:16;8.68;;;8.20;;
53961;SDS011;39868;53.398;6.564;2024-03-02T10:02:44;8.55;;;8.10;;
53961;SDS011;39868;53.398;6.564;2024-03-02T10:05:25;8.75;;;8.38;;
53961;SDS011;39868;53.398;6.564;2024-03-02T10:07:59;8.20;;;7.80;;
53961;SDS011;39868;53.398;6.564;2024-03-02T10:10:37;9.45;;;8.80;;
53961;SDS011;39868;53.398;6.564;2024-03-02T10:13:10;8.82;;;8.35;;
53961;SDS011;39868;53.398;6.564;2024-03-02T10:15:40;8.77;;;8.38;;
53961;SDS011;39868;53.398;6.564;2024-03-02T10:18:12;9.00;;;8.50;;
53961;SDS011;39868;53.398;6.564;2024-03-02T10:20:40;8.70;;;8.30;;
53961;SDS011;39868;53.398;6.564;2024-03-02T10:23:14;9.10;;;8.60;;
53961;SDS011;39868;53.398;6.564;2024-03-02T10:25:45;8.35;;;7.95;;
53961;SDS011;39868;53.398;6.564;2024-03-02T10:28:23;8.13;;;7.53;;
53961;SDS011;39868;53.398;6.564;2024-03-02T10:30:51;8.45;;;7.95;;
53961;SDS011;39868;53.398;6.564;2024-03-02T10:33:20;8.73;;;8.23;;
53961;SDS011;39868;53.398;6.564;2024-03-02T10:35:48;8.70;;;8.30;;
53961;SDS011;39868;53.398;6.564;2024-03-02T10:38:17;8.68;;;8.38;;
53961;SDS011;39868;53.398;6.564;2024-03-02T10:40:47;8.50;;;8.20;;
53961;SDS011;39868;53.398;6.564;2024-03-02T10:43:15;9.88;;;9.38;;
53961;SDS011;39868;53.398;6.564;2024-03-02T10:45:45;9.18;;;8.77;;
53961;SDS011;39868;53.398;6.564;2024-03-02T10:48:16;9.48;;;9.07;;
53961;SDS011;39868;53.398;6.564;2024-03-02T10:50:43;9.68;;;9.18;;
53961;SDS011;39868;53.398;6.564;2024-03-02T10:53:10;9.57;;;9.07;;
53961;SDS011;39868;53.398;6.564;2024-03-02T10:55:37;9.50;;;9.10;;
53961;SDS011;39868;53.398;6.564;2024-03-02T10:58:05;9.13;;;8.73;;
53961;SDS011;39868;53.398;6.564;2024-03-02T11:00:36;8.70;;;8.30;;
53961;SDS011;39868;53.398;6.564;2024-03-02T11:03:05;9.55;;;9.15;;
53961;SDS011;39868;53.398;6.564;2024-03-02T11:05:38;9.60;;;9.20;;
53961;SDS011;39868;53.398;6.564;2024-03-02T11:08:13;9.30;;;8.90;;
53961;SDS011;39868;53.398;6.564;2024-03-02T11:10:54;9.20;;;8.80;;
53961;SDS011;39868;53.398;6.564;2024-03-02T11:13:33;9.63;;;9.13;;
53961;SDS011;39868;53.398;6.564;2024-03-02T11:16:16;9.57;;;9.18;;
53961;SDS011;39868;53.398;6.564;2024-03-02T11:18:59;9.70;;;9.20;;
53961;SDS011;39868;53.398;6.564;2024-03-02T11:21:27;9.65;;;9.15;;
53961;SDS011;39868;53.398;6.564;2024-03-02T11:23:54;8.77;;;8.38;;
53961;SDS011;39868;53.398;6.564;2024-03-02T11:26:22;8.38;;;8.05;;
53961;SDS011;39868;53.398;6.564;2024-03-02T11:28:50;8.70;;;8.30;;
53961;SDS011;39868;53.398;6.564;2024-03-02T11:31:18;8.02;;;7.72;;
53961;SDS011;39868;53.398;6.564;2024-03-02T11:33:45;8.77;;;8.40;;
53961;SDS011;39868;53.398;6.564;2024-03-02T11:36:13;8.95;;;8.55;;
53961;SDS011;39868;53.398;6.564;2024-03-02T11:38:43;8.80;;;8.40;;
53961;SDS011;39868;53.398;6.564;2024-03-02T11:41:20;8.55;;;8.15;;
53961;SDS011;39868;53.398;6.564;2024-03-02T11:43:48;7.97;;;7.45;;
53961;SDS011;39868;53.398;6.564;2024-03-02T11:46:22;9.45;;;8.90;;
53961;SDS011;39868;53.398;6.564;2024-03-02T11:48:50;8.60;;;8.30;;
53961;SDS011;39868;53.398;6.564;2024-03-02T11:51:17;8.20;;;7.70;;
53961;SDS011;39868;53.398;6.564;2024-03-02T11:53:44;9.30;;;8.80;;
53961;SDS011;39868;53.398;6.564;2024-03-02T11:56:13;9.55;;;9.05;;
53961;SDS011;39868;53.398;6.564;2024-03-02T11:58:42;9.57;;;9.18;;
53961;SDS011;39868;53.398;6.564;2024-03-02T12:01:10;9.30;;;8.90;;
53961;SDS011;39868;53.398;6.564;2024-03-02T12:03:38;8.32;;;8.00;;
53961;SDS011;39868;53.398;6.564;2024-03-02T12:06:06;8.50;;;8.20;;
53961;SDS011;39868;53.398;6.564;2024-03-02T12:08:34;9.30;;;8.90;;
53961;SDS011;39868;53.398;6.564;2024-03-02T12:11:02;8.30;;;7.90;;
53961;SDS011;39868;53.398;6.564;2024-03-02T12:13:30;8.20;;;7.80;;
53961;SDS011;39868;53.398;6.564;2024-03-02T12:15:59;9.23;;;8.82;;
53961;SDS011;39868;53.398;6.564;2024-03-02T12:18:29;9.50;;;9.10;;
53961;SDS011;39868;53.398;6.564;2024-03-02T12:20:56;9.40;;;8.90;;
53961;SDS011;39868;53.398;6.564;2024-03-02T12:23:25;9.60;;;9.20;;
53961;SDS011;39868;53.398;6.564;2024-03-02T12:25:53;9.85;;;9.45;;
53961;SDS011;39868;53.398;6.564;2024-03-02T12:28:20;9.80;;;9.30;;
53961;SDS011;39868;53.398;6.564;2024-03-02T12:30:48;8.55;;;7.97;;
53961;SDS011;39868;53.398;6.564;2024-03-02T12:33:16;8.80;;;8.40;;
53961;SDS011;39868;53.398;6.564;2024-03-02T12:35:44;9.30;;;8.90;;
53961;SDS011;39868;53.398;6.564;2024-03-02T12:38:11;9.60;;;9.20;;
53961;SDS011;39868;53.398;6.564;2024-03-02T12:40:40;11.60;;;11.10;;
53961;SDS011;39868;53.398;6.564;2024-03-02T12:43:07;12.70;;;11.90;;
53961;SDS011;39868;53.398;6.564;2024-03-02T12:45:35;12.43;;;11.82;;
53961;SDS011;39868;53.398;6.564;2024-03-02T12:48:03;12.40;;;11.80;;
53961;SDS011;39868;53.398;6.564;2024-03-02T12:50:32;13.57;;;12.88;;
53961;SDS011;39868;53.398;6.564;2024-03-02T12:53:00;13.68;;;12.90;;
53961;SDS011;39868;53.398;6.564;2024-03-02T12:55:28;14.90;;;13.93;;
53961;SDS011;39868;53.398;6.564;2024-03-02T12:57:55;12.55;;;11.85;;
53961;SDS011;39868;53.398;6.564;2024-03-02T13:00:23;13.10;;;12.50;;
53961;SDS011;39868;53.398;6.564;2024-03-02T13:02:51;14.15;;;13.45;;
53961;SDS011;39868;53.398;6.564;2024-03-02T13:05:19;13.90;;;13.23;;
53961;SDS011;39868;53.398;6.564;2024-03-02T13:07:48;14.00;;;13.30;;
53961;SDS011;39868;53.398;6.564;2024-03-02T13:10:16;14.80;;;14.00;;
53961;SDS011;39868;53.398;6.564;2024-03-02T13:12:45;14.43;;;13.82;;
53961;SDS011;39868;53.398;6.564;2024-03-02T13:15:13;14.57;;;13.88;;
53961;SDS011;39868;53.398;6.564;2024-03-02T13:17:46;14.98;;;14.15;;
53961;SDS011;39868;53.398;6.564;2024-03-02T13:20:14;14.20;;;13.60;;
53961;SDS011;39868;53.398;6.564;2024-03-02T13:22:41;14.10;;;13.45;;
53961;SDS011;39868;53.398;6.564;2024-03-02T13:25:10;14.35;;;13.65;;
53961;SDS011;39868;53.398;6.564;2024-03-02T13:27:38;14.57;;;13.88;;
53961;SDS011;39868;53.398;6.564;2024-03-02T13:30:06;15.07;;;14.38;;
53961;SDS011;39868;53.398;6.564;2024-03-02T13:32:36;14.88;;;14.18;;
53961;SDS011;39868;53.398;6.564;2024-03-02T13:35:03;15.38;;;14.65;;
53961;SDS011;39868;53.398;6.564;2024-03-02T13:37:31;15.00;;;14.30;;
53961;SDS011;39868;53.398;6.564;2024-03-02T13:39:59;15.23;;;14.32;;
53961;SDS011;39868;53.398;6.564;2024-03-02T13:42:26;15.05;;;14.27;;
53961;SDS011;39868;53.398;6.564;2024-03-02T13:44:54;15.05;;;14.23;;
53961;SDS011;39868;53.398;6.564;2024-03-02T13:47:21;14.95;;;14.23;;
53961;SDS011;39868;53.398;6.564;2024-03-02T13:49:49;15.40;;;14.68;;
53961;SDS011;39868;53.398;6.564;2024-03-02T13:52:16;15.43;;;14.52;;
53961;SDS011;39868;53.398;6.564;2024-03-02T13:54:44;15.45;;;14.65;;
53961;SDS011;39868;53.398;6.564;2024-03-02T13:57:13;15.90;;;15.10;;
53961;SDS011;39868;53.398;6.564;2024-03-02T13:59:41;15.88;;;15.02;;
53961;SDS011;39868;53.398;6.564;2024-03-02T14:02:10;15.70;;;14.90;;
53961;SDS011;39868;53.398;6.564;2024-03-02T14:04:38;15.75;;;14.95;;
53961;SDS011;39868;53.398;6.564;2024-03-02T14:07:06;16.05;;;15.15;;
53961;SDS011;39868;53.398;6.564;2024-03-02T14:09:35;15.73;;;14.93;;
53961;SDS011;39868;53.398;6.564;2024-03-02T14:12:03;16.15;;;15.20;;
53961;SDS011;39868;53.398;6.564;2024-03-02T14:14:32;15.57;;;14.77;;
53961;SDS011;39868;53.398;6.564;2024-03-02T14:17:01;15.77;;;14.88;;
53961;SDS011;39868;53.398;6.564;2024-03-02T14:19:33;16.15;;;15.25;;
53961;SDS011;39868;53.398;6.564;2024-03-02T14:22:00;16.17;;;15.27;;
53961;SDS011;39868;53.398;6.564;2024-03-02T14:24:27;15.48;;;14.68;;
53961;SDS011;39868;53.398;6.564;2024-03-02T14:26:56;15.55;;;14.70;;
53961;SDS011;39868;53.398;6.564;2024-03-02T14:29:40;15.23;;;14.43;;
53961;SDS011;39868;53.398;6.564;2024-03-02T14:32:09;15.50;;;14.80;;
53961;SDS011;39868;53.398;6.564;2024-03-02T14:34:36;15.43;;;14.65;;
53961;SDS011;39868;53.398;6.564;2024-03-02T14:37:06;15.15;;;14.35;;
53961;SDS011;39868;53.398;6.564;2024-03-02T14:39:33;15.30;;;14.57;;
53961;SDS011;39868;53.398;6.564;2024-03-02T14:42:02;14.75;;;14.05;;
53961;SDS011;39868;53.398;6.564;2024-03-02T14:44:29;15.50;;;14.70;;